createdAt,value
2023-02-09T00:00:16.306Z,7.07
2023-02-09T00:03:00.919Z,4.82
2023-02-09T00:05:45.100Z,7.57
2023-02-09T00:08:28.896Z,4.95
2023-02-09T00:11:16.480Z,5.30
2023-02-09T00:13:58.302Z,8.38
2023-02-09T00:16:41.317Z,6.10
2023-02-09T00:19:24.273Z,5.18
2023-02-09T00:22:08.466Z,6.80
2023-02-09T00:24:51.303Z,7.80
2023-02-09T00:27:35.637Z,6.53
2023-02-09T00:30:19.736Z,7.22
2023-02-09T00:33:03.168Z,9.60
2023-02-09T00:35:46.217Z,9.57
2023-02-09T00:38:30.433Z,7.43
2023-02-09T00:43:56.721Z,6.85
2023-02-09T00:46:39.526Z,6.55
2023-02-09T00:49:22.345Z,6.10
2023-02-09T00:52:05.292Z,5.35
2023-02-09T00:54:49.413Z,5.85
2023-02-09T00:57:32.714Z,6.82
2023-02-09T01:00:17.753Z,4.57
2023-02-09T01:03:00.847Z,7.28
2023-02-09T01:05:43.937Z,4.22
2023-02-09T01:08:27.721Z,2.72
2023-02-09T01:11:14.407Z,4.72
2023-02-09T01:13:59.512Z,6.70
2023-02-09T01:16:42.423Z,5.20
2023-02-09T01:19:26.805Z,4.22
2023-02-09T01:22:12.279Z,5.90
2023-02-09T01:27:39.190Z,6.40
2023-02-09T01:33:04.818Z,4.68
2023-02-09T01:35:47.652Z,3.40
2023-02-09T01:38:30.667Z,4.82
2023-02-09T01:41:14.142Z,3.65
2023-02-09T01:44:01.592Z,3.95
2023-02-09T01:46:45.534Z,5.18
2023-02-09T01:49:29.253Z,3.45
2023-02-09T01:52:16.165Z,5.35
2023-02-09T01:55:02.730Z,5.57
2023-02-09T01:57:52.126Z,6.05
2023-02-09T02:00:37.412Z,4.40
2023-02-09T02:03:23.470Z,4.40
2023-02-09T02:06:10.058Z,3.55
2023-02-09T02:08:57.468Z,5.25
2023-02-09T02:11:43.486Z,5.03
2023-02-09T02:14:29.943Z,5.40
2023-02-09T02:17:25.499Z,4.93
2023-02-09T02:20:32.053Z,3.58
2023-02-09T02:23:27.863Z,5.90
2023-02-09T02:26:43.088Z,3.83
2023-02-09T02:30:07.384Z,3.20
2023-02-09T02:33:04.697Z,4.20
2023-02-09T02:35:53.162Z,4.78
2023-02-09T02:38:39.884Z,4.72
2023-02-09T02:41:30.280Z,3.75
2023-02-09T02:44:18.411Z,2.70
2023-02-09T02:47:06.695Z,4.78
2023-02-09T02:49:54.291Z,5.97
2023-02-09T02:52:40.112Z,4.03
2023-02-09T02:55:26.597Z,4.85
2023-02-09T02:58:13.043Z,3.65
2023-02-09T03:01:00.314Z,4.28
2023-02-09T03:03:45.713Z,2.92
2023-02-09T03:06:32.217Z,4.07
2023-02-09T03:09:15.011Z,4.97
2023-02-09T03:12:05.873Z,6.10
2023-02-09T03:15:05.977Z,5.60
2023-02-09T03:17:56.805Z,3.28
2023-02-09T03:20:45.980Z,2.95
2023-02-09T03:23:38.182Z,5.63
2023-02-09T03:26:25.266Z,4.25
2023-02-09T03:29:10.818Z,6.55
2023-02-09T03:31:54.634Z,4.75
2023-02-09T03:34:37.600Z,4.72
2023-02-09T03:37:20.575Z,4.65
2023-02-09T03:40:05.035Z,3.20
2023-02-09T03:42:47.920Z,4.05
2023-02-09T03:45:30.685Z,3.78
2023-02-09T03:48:13.673Z,5.05
2023-02-09T03:50:56.500Z,2.95
2023-02-09T03:53:39.365Z,4.30
2023-02-09T03:56:24.993Z,4.20
2023-02-09T03:59:07.851Z,3.00
2023-02-09T04:01:51.954Z,2.72
2023-02-09T04:04:35.053Z,2.65
2023-02-09T04:07:17.866Z,3.20
2023-02-09T04:10:00.672Z,2.80
2023-02-09T04:12:44.841Z,3.03
2023-02-09T04:18:10.471Z,3.03
2023-02-09T04:20:53.277Z,4.72
2023-02-09T04:23:36.982Z,3.97
2023-02-09T04:26:19.971Z,2.83
2023-02-09T04:29:04.910Z,3.72
2023-02-09T04:31:47.796Z,3.33
2023-02-09T04:34:30.621Z,3.50
2023-02-09T04:37:13.472Z,3.35
2023-02-09T04:39:56.294Z,6.38
2023-02-09T04:42:39.125Z,5.22
2023-02-09T04:45:23.274Z,3.42
2023-02-09T04:48:06.204Z,2.38
2023-02-09T04:50:49.695Z,3.45
2023-02-09T04:53:32.566Z,4.97
2023-02-09T04:56:16.542Z,3.65
2023-02-09T04:59:16.919Z,3.20
2023-02-09T05:02:01.119Z,4.63
2023-02-09T05:07:26.764Z,3.28
2023-02-09T05:10:10.285Z,4.13
2023-02-09T05:12:53.418Z,3.92
2023-02-09T05:15:36.206Z,4.70
2023-02-09T05:18:20.392Z,4.90
2023-02-09T05:21:03.261Z,3.63
2023-02-09T05:23:46.103Z,4.57
2023-02-09T05:26:29.236Z,3.90
2023-02-09T05:29:12.068Z,4.47
2023-02-09T05:31:54.945Z,2.70
2023-02-09T05:34:39.406Z,5.35
2023-02-09T05:37:22.238Z,3.97
2023-02-09T05:40:06.126Z,3.72
2023-02-09T05:42:48.947Z,3.78
2023-02-09T05:45:31.851Z,6.47
2023-02-09T05:48:14.793Z,4.90
2023-02-09T05:50:58.940Z,3.88
2023-02-09T05:53:41.732Z,4.20
2023-02-09T05:56:24.559Z,4.68
2023-02-09T05:59:07.621Z,3.40
2023-02-09T06:01:50.448Z,7.40
2023-02-09T06:04:33.530Z,4.63
2023-02-09T06:07:17.716Z,4.28
2023-02-09T06:10:00.552Z,5.78
2023-02-09T06:12:43.381Z,3.70
2023-02-09T06:15:26.175Z,4.75
2023-02-09T06:18:09.213Z,3.97
2023-02-09T06:20:52.045Z,6.80
2023-02-09T06:23:36.301Z,5.82
2023-02-09T06:26:19.243Z,4.72
2023-02-09T06:29:02.082Z,5.82
2023-02-09T06:31:44.969Z,4.70
2023-02-09T06:34:27.953Z,4.18
2023-02-09T06:37:10.735Z,5.30
2023-02-09T06:39:54.909Z,4.65
2023-02-09T06:42:44.693Z,3.78
2023-02-09T06:45:27.519Z,4.00
2023-02-09T06:48:10.804Z,5.65
2023-02-09T06:50:53.913Z,6.18
2023-02-09T06:53:37.214Z,6.00
2023-02-09T06:56:21.413Z,7.30
2023-02-09T07:01:46.937Z,5.20
2023-02-09T07:04:30.184Z,5.07
2023-02-09T07:07:13.221Z,5.45
2023-02-09T07:09:56.088Z,4.82
2023-02-09T07:12:40.725Z,4.53
2023-02-09T07:15:23.772Z,5.22
2023-02-09T07:18:06.624Z,6.47
2023-02-09T07:20:54.990Z,5.65
2023-02-09T07:23:37.942Z,4.90
2023-02-09T07:26:20.822Z,7.05
2023-02-09T07:29:05.007Z,3.65
2023-02-09T07:31:47.934Z,5.47
2023-02-09T07:34:30.844Z,3.33
2023-02-09T07:37:13.629Z,4.68
2023-02-09T07:39:56.574Z,4.78
2023-02-09T07:42:39.677Z,4.05
2023-02-09T07:45:25.206Z,5.07
2023-02-09T07:48:08.038Z,3.92
2023-02-09T07:50:51.772Z,3.55
2023-02-09T07:53:34.756Z,4.55
2023-02-09T07:56:17.606Z,7.90
2023-02-09T07:59:00.415Z,6.57
2023-02-09T08:01:44.624Z,7.00
2023-02-09T08:04:27.519Z,5.50
2023-02-09T08:07:10.390Z,5.20
2023-02-09T08:09:53.248Z,3.90
2023-02-09T08:12:53.522Z,4.68
2023-02-09T08:15:43.085Z,5.40
2023-02-09T08:18:33.735Z,4.05
2023-02-09T08:21:18.684Z,3.85
2023-02-09T08:24:02.140Z,3.63
2023-02-09T08:26:45.861Z,4.63
2023-02-09T08:29:29.032Z,4.75
2023-02-09T08:32:11.910Z,4.82
2023-02-09T08:34:56.304Z,4.72
2023-02-09T08:37:39.119Z,4.93
2023-02-09T08:40:22.524Z,5.03
2023-02-09T08:43:05.556Z,5.60
2023-02-09T08:45:48.971Z,5.85
2023-02-09T08:48:34.226Z,5.32
2023-02-09T08:51:19.802Z,4.93
2023-02-09T08:56:45.322Z,4.50
2023-02-09T08:59:28.819Z,3.58
2023-02-09T09:02:11.798Z,5.13
2023-02-09T09:04:54.667Z,4.38
2023-02-09T09:07:38.878Z,5.22
2023-02-09T09:10:21.735Z,4.50
2023-02-09T09:13:04.614Z,5.47
2023-02-09T09:15:47.866Z,5.13
2023-02-09T09:18:30.849Z,3.72
2023-02-09T09:21:14.028Z,5.00
2023-02-09T09:23:58.196Z,5.93
2023-02-09T09:26:41.011Z,3.83
2023-02-09T09:29:24.021Z,4.88
2023-02-09T09:32:07.125Z,5.57
2023-02-09T09:34:53.223Z,4.18
2023-02-09T09:37:36.227Z,3.40
2023-02-09T09:40:22.433Z,3.88
2023-02-09T09:43:08.740Z,4.20
2023-02-09T09:45:51.804Z,3.50
2023-02-09T09:48:41.982Z,3.55
2023-02-09T09:51:35.252Z,3.92
2023-02-09T09:54:22.088Z,4.85
2023-02-09T09:57:19.437Z,4.18
2023-02-09T10:00:04.174Z,4.05
2023-02-09T10:02:47.344Z,3.75
2023-02-09T10:05:31.964Z,5.57
2023-02-09T10:08:22.277Z,3.83
2023-02-09T10:11:07.117Z,5.60
2023-02-09T10:13:53.078Z,4.63
2023-02-09T10:16:38.340Z,5.97
2023-02-09T10:19:23.238Z,5.05
2023-02-09T10:22:11.794Z,5.18
2023-02-09T10:24:54.602Z,7.13
2023-02-09T10:27:37.612Z,6.93
2023-02-09T10:30:29.780Z,6.93
2023-02-09T10:33:15.566Z,5.88
2023-02-09T10:36:01.036Z,5.28
2023-02-09T10:38:43.934Z,6.82
2023-02-09T10:41:26.821Z,7.90
2023-02-09T10:44:17.872Z,6.10
2023-02-09T10:47:12.641Z,6.00
2023-02-09T10:49:57.090Z,4.18
2023-02-09T10:52:43.182Z,5.78
2023-02-09T10:55:30.418Z,4.53
2023-02-09T10:58:25.496Z,4.47
2023-02-09T11:01:19.148Z,5.38
2023-02-09T11:04:06.125Z,3.88
2023-02-09T11:06:53.824Z,3.33
2023-02-09T11:09:40.376Z,4.43
2023-02-09T11:12:26.166Z,5.90
2023-02-09T11:15:13.984Z,5.05
2023-02-09T11:18:03.487Z,7.75
2023-02-09T11:20:52.726Z,4.57
2023-02-09T11:23:45.053Z,5.00
2023-02-09T11:26:40.178Z,4.43
2023-02-09T11:29:29.870Z,4.22
2023-02-09T11:32:21.421Z,5.43
2023-02-09T11:35:12.333Z,4.38
2023-02-09T11:38:00.844Z,4.72
2023-02-09T11:40:47.707Z,4.20
2023-02-09T11:43:38.697Z,4.47
2023-02-09T11:46:24.981Z,5.05
2023-02-09T11:49:17.963Z,4.50
2023-02-09T11:52:03.069Z,5.65
2023-02-09T11:54:51.388Z,4.53
2023-02-09T11:57:40.542Z,4.80
2023-02-09T12:00:27.598Z,6.78
2023-02-09T12:03:12.703Z,3.75
2023-02-09T12:05:56.491Z,6.65
2023-02-09T12:08:49.793Z,5.50
2023-02-09T12:11:45.749Z,4.07
2023-02-09T12:14:44.926Z,5.65
2023-02-09T12:17:37.415Z,5.38
2023-02-09T12:20:29.841Z,4.85
2023-02-09T12:23:19.528Z,5.05
2023-02-09T12:26:03.691Z,4.55
2023-02-09T12:28:49.580Z,5.05
2023-02-09T12:31:54.145Z,4.45
2023-02-09T12:34:41.663Z,5.43
2023-02-09T12:37:29.397Z,5.93
2023-02-09T12:40:23.900Z,5.55
2023-02-09T12:43:25.971Z,6.78
2023-02-09T12:46:26.358Z,5.28
2023-02-09T12:49:21.797Z,3.97
2023-02-09T12:52:17.910Z,5.38
2023-02-09T12:55:00.805Z,4.57
2023-02-09T12:57:53.070Z,6.80
2023-02-09T13:00:55.730Z,5.22
2023-02-09T13:03:46.511Z,4.57
2023-02-09T13:06:37.439Z,3.72
2023-02-09T13:09:27.920Z,4.18
2023-02-09T13:12:14.864Z,4.70
2023-02-09T13:14:57.688Z,3.85
2023-02-09T13:17:44.258Z,3.47
2023-02-09T13:20:54.495Z,3.28
2023-02-09T13:23:48.152Z,4.97
2023-02-09T13:26:33.737Z,5.78
2023-02-09T13:29:21.254Z,5.70
2023-02-09T13:32:13.370Z,3.20
2023-02-09T13:35:01.380Z,5.88
2023-02-09T13:37:49.049Z,4.60
2023-02-09T13:40:34.346Z,4.85
2023-02-09T13:43:19.732Z,5.95
2023-02-09T13:46:03.843Z,6.05
2023-02-09T13:48:46.907Z,4.88
2023-02-09T13:51:29.795Z,5.28
2023-02-09T13:54:19.929Z,5.55
2023-02-09T13:57:03.482Z,5.40
2023-02-09T13:59:46.479Z,7.60
2023-02-09T14:02:29.870Z,6.65
2023-02-09T14:05:20.472Z,7.60
2023-02-09T14:08:04.171Z,7.00
2023-02-09T14:10:53.595Z,7.43
2023-02-09T14:13:40.939Z,6.13
2023-02-09T14:16:27.745Z,6.85
2023-02-09T14:19:26.709Z,6.03
2023-02-09T14:22:29.379Z,6.15
2023-02-09T14:25:23.570Z,5.82
2023-02-09T14:28:16.459Z,6.05
2023-02-09T14:31:00.261Z,6.43
2023-02-09T14:33:48.740Z,6.13
2023-02-09T14:36:33.461Z,6.60
2023-02-09T14:42:17.772Z,5.22
2023-02-09T14:45:22.781Z,5.53
2023-02-09T14:48:17.595Z,7.30
2023-02-09T14:51:02.378Z,5.50
2023-02-09T14:56:33.679Z,5.18
2023-02-09T14:59:18.065Z,6.40
2023-02-09T15:02:02.777Z,5.40
2023-02-09T15:04:46.172Z,6.60
2023-02-09T15:07:36.698Z,5.50
2023-02-09T15:10:24.569Z,6.97
2023-02-09T15:13:07.358Z,6.75
2023-02-09T15:15:50.765Z,8.18
2023-02-09T15:18:36.112Z,6.63
2023-02-09T15:21:19.026Z,7.35
2023-02-09T15:24:01.894Z,7.53
2023-02-09T15:26:44.837Z,7.75
2023-02-09T15:29:27.726Z,7.38
2023-02-09T15:32:15.877Z,7.63
2023-02-09T15:35:00.108Z,7.90
2023-02-09T15:37:44.467Z,7.60
2023-02-09T15:40:48.275Z,9.48
2023-02-09T15:43:48.665Z,8.35
2023-02-09T15:46:49.142Z,7.88
2023-02-09T15:49:32.084Z,9.48
2023-02-09T15:52:17.776Z,10.95
2023-02-09T15:55:01.037Z,10.38
2023-02-09T15:57:44.042Z,6.35
2023-02-09T16:00:28.857Z,11.10
2023-02-09T16:03:15.867Z,30.50
2023-02-09T16:06:01.446Z,20.05
2023-02-09T16:08:47.167Z,15.52
2023-02-09T16:11:33.050Z,10.65
2023-02-09T16:14:18.062Z,11.98
2023-02-09T16:17:01.002Z,9.15
2023-02-09T16:19:45.878Z,8.15
2023-02-09T16:22:28.960Z,7.72
2023-02-09T16:25:20.210Z,11.23
2023-02-09T16:28:03.124Z,12.02
2023-02-09T16:30:51.815Z,9.00
2023-02-09T16:33:35.458Z,9.98
2023-02-09T16:36:20.131Z,11.47
2023-02-09T16:39:03.837Z,9.05
2023-02-09T16:41:50.521Z,9.73
2023-02-09T16:44:35.083Z,11.82
2023-02-09T16:47:22.153Z,12.57
2023-02-09T16:50:15.348Z,15.77
2023-02-09T16:52:58.223Z,11.23
2023-02-09T16:55:41.985Z,10.05
2023-02-09T16:58:26.206Z,7.97
2023-02-09T17:01:15.798Z,15.80
2023-02-09T17:03:58.753Z,18.42
2023-02-09T17:06:42.184Z,28.00
2023-02-09T17:09:25.054Z,39.13
2023-02-09T17:12:11.556Z,66.65
2023-02-09T17:14:55.834Z,38.97
2023-02-09T17:17:38.668Z,81.40
2023-02-09T17:20:24.174Z,53.28
2023-02-09T17:23:07.057Z,30.88
2023-02-09T17:25:50.830Z,59.53
2023-02-09T17:28:33.685Z,34.75
2023-02-09T17:31:22.126Z,26.50
2023-02-09T17:34:08.621Z,27.05
2023-02-09T17:36:51.484Z,22.42
2023-02-09T17:39:34.318Z,20.40
2023-02-09T17:42:22.965Z,20.02
2023-02-09T17:45:06.187Z,16.35
2023-02-09T17:47:51.743Z,17.75
2023-02-09T17:50:34.596Z,14.85
2023-02-09T17:53:19.859Z,16.63
2023-02-09T17:56:03.037Z,15.38
2023-02-09T17:58:46.166Z,18.95
2023-02-09T18:01:31.226Z,15.68
2023-02-09T18:04:18.795Z,15.93
2023-02-09T18:07:02.165Z,18.80
2023-02-09T18:09:44.953Z,14.60
2023-02-09T18:12:28.451Z,17.13
2023-02-09T18:15:21.253Z,17.05
2023-02-09T18:18:04.687Z,16.58
2023-02-09T18:20:49.343Z,14.00
2023-02-09T18:23:32.203Z,21.58
2023-02-09T18:26:14.998Z,25.63
2023-02-09T18:28:57.885Z,17.55
2023-02-09T18:31:40.824Z,18.58
2023-02-09T18:34:23.676Z,15.60
2023-02-09T18:37:07.891Z,18.00
2023-02-09T18:39:50.751Z,16.95
2023-02-09T18:42:33.533Z,15.68
2023-02-09T18:45:18.622Z,13.75
2023-02-09T18:48:02.012Z,13.45
2023-02-09T18:50:44.853Z,18.48
2023-02-09T18:53:29.075Z,19.48
2023-02-09T18:56:17.719Z,19.13
2023-02-09T18:59:00.910Z,14.52
2023-02-09T19:01:45.145Z,16.98
2023-02-09T19:04:28.315Z,18.85
2023-02-09T19:07:12.475Z,15.73
2023-02-09T19:09:56.714Z,15.30
2023-02-09T19:12:39.713Z,17.50
2023-02-09T19:15:25.746Z,17.80
2023-02-09T19:18:08.579Z,18.20
2023-02-09T19:20:55.565Z,14.27
2023-02-09T19:23:38.377Z,14.55
2023-02-09T19:26:22.585Z,16.75
2023-02-09T19:29:05.475Z,16.40
2023-02-09T19:31:48.636Z,17.23
2023-02-09T19:34:32.298Z,18.35
2023-02-09T19:37:16.333Z,18.05
2023-02-09T19:40:07.103Z,13.30
2023-02-09T19:42:51.260Z,13.57
2023-02-09T19:45:37.509Z,12.23
2023-02-09T19:48:20.480Z,12.88
2023-02-09T19:51:03.318Z,16.60
2023-02-09T19:53:46.109Z,13.35
2023-02-09T19:56:29.071Z,14.70
2023-02-09T19:59:13.754Z,11.95
2023-02-09T20:01:56.782Z,13.00
2023-02-09T20:04:39.622Z,12.52
2023-02-09T20:07:22.394Z,15.93
2023-02-09T20:10:06.279Z,13.02
2023-02-09T20:12:49.119Z,16.63
2023-02-09T20:15:33.792Z,15.38
2023-02-09T20:18:17.661Z,22.58
2023-02-09T20:21:00.922Z,19.00
2023-02-09T20:23:45.721Z,16.88
2023-02-09T20:26:33.020Z,14.45
2023-02-09T20:29:16.832Z,18.13
2023-02-09T20:32:01.840Z,17.25
2023-02-09T20:34:44.653Z,15.63
2023-02-09T20:37:28.265Z,15.80
2023-02-09T20:40:12.402Z,12.77
2023-02-09T20:43:12.536Z,14.23
2023-02-09T20:46:12.922Z,16.17
2023-02-09T20:48:57.260Z,13.00
2023-02-09T20:51:40.330Z,16.25
2023-02-09T20:54:23.141Z,19.30
2023-02-09T20:57:06.188Z,14.45
2023-02-09T20:59:48.979Z,15.43
2023-02-09T21:02:31.855Z,18.98
2023-02-09T21:05:16.645Z,17.40
2023-02-09T21:07:59.488Z,17.08
2023-02-09T21:10:42.427Z,17.92
2023-02-09T21:13:25.544Z,18.33
2023-02-09T21:16:08.939Z,18.73
2023-02-09T21:18:51.831Z,13.98
2023-02-09T21:21:36.280Z,18.20
2023-02-09T21:27:01.802Z,19.27
2023-02-09T21:29:44.632Z,18.23
2023-02-09T21:32:28.476Z,15.93
2023-02-09T21:35:11.426Z,19.38
2023-02-09T21:37:55.585Z,19.48
2023-02-09T21:40:39.144Z,16.05
2023-02-09T21:43:21.971Z,17.20
2023-02-09T21:46:04.997Z,15.90
2023-02-09T21:48:47.847Z,19.38
2023-02-09T21:51:30.682Z,18.30
2023-02-09T21:54:16.779Z,17.63
2023-02-09T21:56:59.699Z,17.80
2023-02-09T21:59:42.640Z,18.38
2023-02-09T22:02:27.378Z,16.42
2023-02-09T22:05:10.820Z,13.55
2023-02-09T22:07:53.942Z,8.43
2023-02-09T22:10:38.112Z,17.60
2023-02-09T22:13:20.958Z,19.33
2023-02-09T22:16:09.212Z,18.83
2023-02-09T22:18:52.170Z,11.80
2023-02-09T22:21:35.453Z,11.52
2023-02-09T22:24:19.410Z,12.45
2023-02-09T22:27:04.519Z,10.00
2023-02-09T22:29:47.340Z,11.07
2023-02-09T22:32:31.645Z,14.93
2023-02-09T22:35:14.437Z,12.43
2023-02-09T22:37:57.376Z,16.70
2023-02-09T22:40:40.347Z,16.88
2023-02-09T22:43:24.533Z,14.02
2023-02-09T22:46:07.414Z,12.73
2023-02-09T22:48:53.976Z,14.07
2023-02-09T22:51:37.742Z,10.27
2023-02-09T22:54:21.378Z,13.15
2023-02-09T22:57:04.225Z,7.30
2023-02-09T22:59:48.422Z,13.25
2023-02-09T23:02:31.268Z,13.15
2023-02-09T23:05:14.067Z,18.52
2023-02-09T23:07:56.934Z,16.20
2023-02-09T23:10:39.801Z,14.68
2023-02-09T23:13:22.650Z,15.73
2023-02-09T23:16:14.649Z,19.92
2023-02-09T23:18:59.316Z,12.45
2023-02-09T23:21:44.136Z,11.23
2023-02-09T23:24:27.786Z,14.85
2023-02-09T23:27:10.611Z,14.80
2023-02-09T23:29:55.299Z,17.85
2023-02-09T23:32:39.618Z,15.80
2023-02-09T23:38:07.365Z,16.95
2023-02-09T23:40:50.201Z,19.75
2023-02-09T23:43:33.387Z,16.85
2023-02-09T23:46:18.264Z,17.95
2023-02-09T23:49:02.772Z,17.00
2023-02-09T23:51:46.580Z,18.23
2023-02-09T23:54:29.413Z,18.52
2023-02-09T23:57:12.273Z,13.60
2023-02-09T23:59:55.109Z,17.25
